createdAt,value
2024-03-28T00:06:03.046Z,70.20
2024-03-28T00:16:02.062Z,70.31
2024-03-28T00:26:01.048Z,70.36
2024-03-28T00:36:00.088Z,70.37
2024-03-28T00:45:59.108Z,70.40
2024-03-28T00:55:59.841Z,70.41
2024-03-28T01:05:59.099Z,70.43
2024-03-28T01:15:58.147Z,70.49
2024-03-28T01:25:57.107Z,70.58
2024-03-28T01:35:56.183Z,70.63
2024-03-28T01:45:55.154Z,70.67
2024-03-28T01:55:54.174Z,70.75
2024-03-28T02:05:53.176Z,70.83
2024-03-28T02:15:52.200Z,70.92
2024-03-28T02:25:51.213Z,70.99
2024-03-28T02:35:50.219Z,71.07
2024-03-28T02:45:49.232Z,71.24
2024-03-28T02:55:48.246Z,71.45
2024-03-28T03:05:47.261Z,71.63
2024-03-28T03:15:46.254Z,71.80
2024-03-28T03:25:45.243Z,72.06
2024-03-28T03:35:44.254Z,72.22
2024-03-28T03:45:43.282Z,72.40
2024-03-28T03:55:42.318Z,72.63
2024-03-28T04:05:41.330Z,72.84
2024-03-28T04:15:40.367Z,72.81
2024-03-28T04:25:39.358Z,72.96
2024-03-28T04:35:38.407Z,73.07
2024-03-28T04:45:37.432Z,73.25
2024-03-28T04:55:36.422Z,73.46
2024-03-28T05:05:35.448Z,73.59
2024-03-28T05:15:34.424Z,73.75
2024-03-28T05:25:33.455Z,73.88
2024-03-28T05:35:32.454Z,74.10
2024-03-28T05:45:31.507Z,74.33
2024-03-28T05:55:30.543Z,74.34
2024-03-28T06:05:29.498Z,74.35
2024-03-28T06:15:28.524Z,74.39
2024-03-28T06:25:27.584Z,74.37
2024-03-28T06:35:27.536Z,74.47
2024-03-28T06:45:26.562Z,74.22
2024-03-28T06:55:25.559Z,74.61
2024-03-28T07:05:24.550Z,74.36
2024-03-28T07:15:23.619Z,73.97
2024-03-28T07:25:22.617Z,73.44
2024-03-28T07:35:21.609Z,72.89
2024-03-28T07:45:20.635Z,72.31
2024-03-28T07:55:21.063Z,71.91
2024-03-28T08:05:20.808Z,71.65
2024-03-28T08:15:20.646Z,71.56
2024-03-28T08:25:19.684Z,71.70
2024-03-28T08:35:18.673Z,71.93
2024-03-28T08:45:17.712Z,72.29
2024-03-28T08:55:16.742Z,72.70
2024-03-28T09:05:15.728Z,73.26
2024-03-28T09:15:14.795Z,73.90
2024-03-28T09:25:14.753Z,74.47
2024-03-28T09:35:13.755Z,75.10
2024-03-28T09:45:12.794Z,75.42
2024-03-28T09:55:11.787Z,75.54
2024-03-28T10:05:10.803Z,75.43
2024-03-28T10:15:09.825Z,75.44
2024-03-28T10:25:08.812Z,75.58
2024-03-28T10:35:07.842Z,75.63
2024-03-28T10:45:06.870Z,76.07
2024-03-28T10:55:06.015Z,76.53
2024-03-28T11:05:05.868Z,77.03
2024-03-28T11:15:04.912Z,77.14
2024-03-28T11:25:03.931Z,76.72
2024-03-28T11:35:02.931Z,75.19
2024-03-28T11:45:01.965Z,73.75
2024-03-28T11:55:00.963Z,72.32
2024-03-28T12:04:59.980Z,70.51
2024-03-28T12:14:58.995Z,68.83
2024-03-28T12:24:58.023Z,67.07
2024-03-28T12:34:59.237Z,63.94
2024-03-28T12:44:59.439Z,62.67
2024-03-28T12:55:00.074Z,62.13
2024-03-28T13:05:00.034Z,60.67
2024-03-28T13:14:59.061Z,61.08
2024-03-28T13:24:58.068Z,61.79
2024-03-28T13:34:57.066Z,61.63
2024-03-28T13:44:56.098Z,60.63
2024-03-28T13:54:55.117Z,60.23
2024-03-28T14:04:54.126Z,59.92
2024-03-28T14:14:53.219Z,59.66
2024-03-28T14:24:53.168Z,58.54
2024-03-28T14:34:53.263Z,57.15
2024-03-28T14:44:53.162Z,56.48
2024-03-28T14:54:52.184Z,55.68
2024-03-28T15:04:51.189Z,55.16
2024-03-28T15:14:50.237Z,54.72
2024-03-28T15:24:49.204Z,54.38
2024-03-28T15:34:48.251Z,54.11
2024-03-28T15:44:47.247Z,54.26
2024-03-28T15:54:46.242Z,54.59
2024-03-28T16:04:45.375Z,55.13
2024-03-28T16:14:45.322Z,55.77
2024-03-28T16:24:44.305Z,56.38
2024-03-28T16:34:43.345Z,56.89
2024-03-28T16:44:42.377Z,57.28
2024-03-28T16:54:41.342Z,57.60
2024-03-28T17:04:40.337Z,57.94
2024-03-28T17:14:39.407Z,58.30
2024-03-28T17:24:38.384Z,58.75
2024-03-28T17:34:37.392Z,58.96
2024-03-28T17:44:37.418Z,59.16
2024-03-28T17:54:36.420Z,59.47
2024-03-28T18:04:35.421Z,59.83
2024-03-28T18:14:34.446Z,60.17
2024-03-28T18:24:33.440Z,60.65
2024-03-28T18:34:32.464Z,61.46
2024-03-28T18:44:31.588Z,61.90
2024-03-28T18:54:31.502Z,62.40
2024-03-28T19:04:30.508Z,62.53
2024-03-28T19:14:29.527Z,63.00
2024-03-28T19:24:30.436Z,63.36
2024-03-28T19:34:29.519Z,63.62
2024-03-28T19:44:28.566Z,64.08
2024-03-28T19:54:33.256Z,63.78
2024-03-28T20:04:28.570Z,63.59
2024-03-28T20:14:27.688Z,63.46
2024-03-28T20:24:27.648Z,63.33
2024-03-28T20:34:26.614Z,63.31
2024-03-28T20:44:25.624Z,63.35
2024-03-28T20:54:24.693Z,63.43
2024-03-28T21:04:23.670Z,63.51
2024-03-28T21:14:22.678Z,63.64
2024-03-28T21:24:21.679Z,63.76
2024-03-28T21:34:20.706Z,63.98
2024-03-28T21:44:19.726Z,64.12
2024-03-28T21:54:18.788Z,64.23
2024-03-28T22:04:18.746Z,64.37
2024-03-28T22:14:17.754Z,64.51
2024-03-28T22:24:16.761Z,64.64
2024-03-28T22:34:15.790Z,64.78
2024-03-28T22:44:14.783Z,64.85
2024-03-28T22:54:13.824Z,64.91
2024-03-28T23:04:12.818Z,65.01
2024-03-28T23:14:11.809Z,65.20
2024-03-28T23:24:10.826Z,65.33
2024-03-28T23:34:09.894Z,65.44
2024-03-28T23:44:08.865Z,65.49
2024-03-28T23:54:07.869Z,65.44
